sensor_id;sensor_type;location;lat;lon;timestamp;pressure;altitude;pressure_sealevel;temperature;humidity
39449;BME280;25151;45.566;9.382;2024-03-06T00:00:22;99251.69;;;19.49;62.24
39449;BME280;25151;45.566;9.382;2024-03-06T00:02:48;99263.78;;;19.46;62.48
39449;BME280;25151;45.566;9.382;2024-03-06T00:05:14;99273.28;;;19.49;62.16
39449;BME280;25151;45.566;9.382;2024-03-06T00:07:44;99271.84;;;19.44;62.16
39449;BME280;25151;45.566;9.382;2024-03-06T00:10:11;99270.91;;;19.47;62.13
39449;BME280;25151;45.566;9.382;2024-03-06T00:12:37;99266.38;;;19.40;62.35
39449;BME280;25151;45.566;9.382;2024-03-06T00:15:04;99277.88;;;19.42;62.32
39449;BME280;25151;45.566;9.382;2024-03-06T00:17:31;99282.56;;;19.46;62.36
39449;BME280;25151;45.566;9.382;2024-03-06T00:19:57;99284.59;;;19.45;62.15
39449;BME280;25151;45.566;9.382;2024-03-06T00:22:23;99280.25;;;19.44;62.18
39449;BME280;25151;45.566;9.382;2024-03-06T00:24:50;99278.34;;;19.41;62.20
39449;BME280;25151;45.566;9.382;2024-03-06T00:27:16;99281.44;;;19.43;61.98
39449;BME280;25151;45.566;9.382;2024-03-06T00:29:42;99277.22;;;19.38;62.25
39449;BME280;25151;45.566;9.382;2024-03-06T00:32:09;99279.91;;;19.42;61.92
39449;BME280;25151;45.566;9.382;2024-03-06T00:34:35;99278.34;;;19.41;62.07
39449;BME280;25151;45.566;9.382;2024-03-06T00:37:02;99281.13;;;19.41;61.96
39449;BME280;25151;45.566;9.382;2024-03-06T00:39:29;99273.31;;;19.36;62.24
39449;BME280;25151;45.566;9.382;2024-03-06T00:41:56;99273.31;;;19.36;62.04
39449;BME280;25151;45.566;9.382;2024-03-06T00:44:22;99274.91;;;19.37;61.84
39449;BME280;25151;45.566;9.382;2024-03-06T00:46:48;99283.59;;;19.39;61.89
39449;BME280;25151;45.566;9.382;2024-03-06T00:49:15;99284.84;;;19.38;62.08
39449;BME280;25151;45.566;9.382;2024-03-06T00:51:41;99278.59;;;19.34;62.09
39449;BME280;25151;45.566;9.382;2024-03-06T00:54:08;99283.28;;;19.37;62.05
39449;BME280;25151;45.566;9.382;2024-03-06T00:56:38;99275.44;;;19.32;61.93
39449;BME280;25151;45.566;9.382;2024-03-06T00:59:05;99270.66;;;19.32;62.11
39449;BME280;25151;45.566;9.382;2024-03-06T01:01:31;99267.06;;;19.32;62.06
39449;BME280;25151;45.566;9.382;2024-03-06T01:03:58;99265.09;;;19.32;61.99
39449;BME280;25151;45.566;9.382;2024-03-06T01:06:29;99262.72;;;19.31;61.95
39449;BME280;25151;45.566;9.382;2024-03-06T01:08:55;99264.16;;;19.35;61.85
39449;BME280;25151;45.566;9.382;2024-03-06T01:11:26;99264.63;;;19.34;61.94
39449;BME280;25151;45.566;9.382;2024-03-06T01:13:53;99270.97;;;19.34;61.88
39449;BME280;25151;45.566;9.382;2024-03-06T01:16:20;99276.25;;;19.32;62.00
39449;BME280;25151;45.566;9.382;2024-03-06T01:18:47;99275.44;;;19.32;61.79
39449;BME280;25151;45.566;9.382;2024-03-06T01:21:22;99287.56;;;19.29;61.78
39449;BME280;25151;45.566;9.382;2024-03-06T01:23:48;99285.97;;;19.28;61.80
39449;BME280;25151;45.566;9.382;2024-03-06T01:26:25;99287.56;;;19.29;61.98
39449;BME280;25151;45.566;9.382;2024-03-06T01:28:51;99297.03;;;19.31;61.84
39449;BME280;25151;45.566;9.382;2024-03-06T01:31:19;99285.97;;;19.28;61.88
39449;BME280;25151;45.566;9.382;2024-03-06T01:33:46;99284.44;;;19.27;61.84
39449;BME280;25151;45.566;9.382;2024-03-06T01:36:13;99284.44;;;19.27;61.92
39449;BME280;25151;45.566;9.382;2024-03-06T01:38:40;99282.41;;;19.27;61.92
39449;BME280;25151;45.566;9.382;2024-03-06T01:41:07;99276.50;;;19.25;61.80
39449;BME280;25151;45.566;9.382;2024-03-06T01:43:37;99280.41;;;19.28;61.97
39449;BME280;25151;45.566;9.382;2024-03-06T01:46:07;99281.97;;;19.29;61.98
39449;BME280;25151;45.566;9.382;2024-03-06T01:48:33;99270.78;;;19.29;61.81
39449;BME280;25151;45.566;9.382;2024-03-06T01:51:02;99267.66;;;19.27;61.70
39449;BME280;25151;45.566;9.382;2024-03-06T01:53:32;99272.00;;;19.28;61.91
39449;BME280;25151;45.566;9.382;2024-03-06T01:56:02;99262.19;;;19.23;61.76
39449;BME280;25151;45.566;9.382;2024-03-06T01:58:29;99278.06;;;19.26;61.85
39449;BME280;25151;45.566;9.382;2024-03-06T02:00:56;99278.84;;;19.27;61.85
39449;BME280;25151;45.566;9.382;2024-03-06T02:03:25;99284.44;;;19.27;61.64
39449;BME280;25151;45.566;9.382;2024-03-06T02:05:51;99287.22;;;19.27;61.74
39449;BME280;25151;45.566;9.382;2024-03-06T02:08:18;99294.06;;;19.26;61.72
39449;BME280;25151;45.566;9.382;2024-03-06T02:10:45;99293.41;;;19.22;61.60
39449;BME280;25151;45.566;9.382;2024-03-06T02:13:13;99299.31;;;19.24;61.65
39449;BME280;25151;45.566;9.382;2024-03-06T02:15:40;99297.44;;;19.21;61.87
39449;BME280;25151;45.566;9.382;2024-03-06T02:18:07;99298.88;;;19.25;61.84
39449;BME280;25151;45.566;9.382;2024-03-06T02:20:34;99287.81;;;19.22;61.66
39449;BME280;25151;45.566;9.382;2024-03-06T02:23:01;99291.84;;;19.21;61.14
39449;BME280;25151;45.566;9.382;2024-03-06T02:25:28;99288.25;;;19.20;61.82
39449;BME280;25151;45.566;9.382;2024-03-06T02:27:54;99287.81;;;19.22;61.67
39449;BME280;25151;45.566;9.382;2024-03-06T02:30:20;99276.28;;;19.20;61.68
39449;BME280;25151;45.566;9.382;2024-03-06T02:32:46;99289.38;;;19.23;61.76
39449;BME280;25151;45.566;9.382;2024-03-06T02:35:13;99283.00;;;19.22;61.76
39449;BME280;25151;45.566;9.382;2024-03-06T02:37:42;99283.78;;;19.23;61.59
39449;BME280;25151;45.566;9.382;2024-03-06T02:40:09;99279.09;;;19.20;61.62
39449;BME280;25151;45.566;9.382;2024-03-06T02:42:39;99283.00;;;19.22;61.76
39449;BME280;25151;45.566;9.382;2024-03-06T02:45:06;99285.78;;;19.22;61.70
39449;BME280;25151;45.566;9.382;2024-03-06T02:47:36;99287.81;;;19.22;61.58
39449;BME280;25151;45.566;9.382;2024-03-06T02:50:02;99291.84;;;19.21;61.88
39449;BME280;25151;45.566;9.382;2024-03-06T02:52:29;99280.78;;;19.17;61.71
39449;BME280;25151;45.566;9.382;2024-03-06T02:54:55;99287.16;;;19.17;61.67
39449;BME280;25151;45.566;9.382;2024-03-06T02:57:22;99303.03;;;19.21;61.57
39449;BME280;25151;45.566;9.382;2024-03-06T02:59:49;99307.03;;;19.20;61.63
39449;BME280;25151;45.566;9.382;2024-03-06T03:02:15;99289.59;;;19.15;61.79
39449;BME280;25151;45.566;9.382;2024-03-06T03:04:42;99297.09;;;19.19;61.47
39449;BME280;25151;45.566;9.382;2024-03-06T03:07:09;99299.56;;;19.16;61.58
39449;BME280;25151;45.566;9.382;2024-03-06T03:09:36;99296.13;;;19.12;61.64
39449;BME280;25151;45.566;9.382;2024-03-06T03:12:02;99302.50;;;19.13;61.48
39449;BME280;25151;45.566;9.382;2024-03-06T03:14:29;99298.00;;;19.15;61.59
39449;BME280;25151;45.566;9.382;2024-03-06T03:16:55;99289.59;;;19.15;61.64
39449;BME280;25151;45.566;9.382;2024-03-06T03:19:21;99298.34;;;19.17;61.59
39449;BME280;25151;45.566;9.382;2024-03-06T03:21:47;99295.19;;;19.15;61.73
39449;BME280;25151;45.566;9.382;2024-03-06T03:24:13;99295.53;;;19.17;61.50
39449;BME280;25151;45.566;9.382;2024-03-06T03:26:39;99293.19;;;19.16;61.54
39449;BME280;25151;45.566;9.382;2024-03-06T03:29:07;99292.41;;;19.15;61.62
39449;BME280;25151;45.566;9.382;2024-03-06T03:31:34;99288.16;;;19.11;61.65
39449;BME280;25151;45.566;9.382;2024-03-06T03:34:01;99300.13;;;19.11;61.49
39449;BME280;25151;45.566;9.382;2024-03-06T03:36:28;99300.13;;;19.11;61.46
39449;BME280;25151;45.566;9.382;2024-03-06T03:39:04;99307.16;;;19.16;61.57
39449;BME280;25151;45.566;9.382;2024-03-06T03:41:30;99304.81;;;19.14;61.49
39449;BME280;25151;45.566;9.382;2024-03-06T03:47:31;99304.16;;;19.10;61.62
39449;BME280;25151;45.566;9.382;2024-03-06T03:49:58;99322.81;;;19.13;61.51
39449;BME280;25151;45.566;9.382;2024-03-06T03:52:26;99326.41;;;19.14;61.48
39449;BME280;25151;45.566;9.382;2024-03-06T03:54:52;99320.16;;;19.10;61.42
39449;BME280;25151;45.566;9.382;2024-03-06T03:57:19;99322.81;;;19.13;61.51
39449;BME280;25151;45.566;9.382;2024-03-06T03:59:46;99313.00;;;19.09;61.43
39449;BME280;25151;45.566;9.382;2024-03-06T04:02:13;99320.94;;;19.10;61.53
39449;BME280;25151;45.566;9.382;2024-03-06T04:04:39;99330.44;;;19.13;61.42
39449;BME280;25151;45.566;9.382;2024-03-06T04:07:06;99329.78;;;19.09;61.61
39449;BME280;25151;45.566;9.382;2024-03-06T04:09:35;99336.47;;;19.11;61.68
39449;BME280;25151;45.566;9.382;2024-03-06T04:12:02;99333.66;;;19.11;61.58
39449;BME280;25151;45.566;9.382;2024-03-06T04:14:29;99339.25;;;19.11;61.52
39449;BME280;25151;45.566;9.382;2024-03-06T04:16:56;99339.25;;;19.11;61.57
39449;BME280;25151;45.566;9.382;2024-03-06T04:19:22;99329.78;;;19.09;61.61
39449;BME280;25151;45.566;9.382;2024-03-06T04:21:49;99340.50;;;19.10;61.34
39449;BME280;25151;45.566;9.382;2024-03-06T04:24:17;99332.09;;;19.10;61.61
39449;BME280;25151;45.566;9.382;2024-03-06T04:26:44;99327.75;;;19.09;61.58
39449;BME280;25151;45.566;9.382;2024-03-06T04:29:10;99321.50;;;19.05;61.66
39449;BME280;25151;45.566;9.382;2024-03-06T04:31:36;99336.91;;;19.10;61.46
39449;BME280;25151;45.566;9.382;2024-03-06T04:34:03;99337.03;;;19.06;61.41
39449;BME280;25151;45.566;9.382;2024-03-06T04:36:29;99351.31;;;19.08;61.69
39449;BME280;25151;45.566;9.382;2024-03-06T04:38:56;99347.31;;;19.09;61.39
39449;BME280;25151;45.566;9.382;2024-03-06T04:41:22;99341.84;;;19.06;61.48
39449;BME280;25151;45.566;9.382;2024-03-06T04:43:49;99348.53;;;19.08;61.62
39449;BME280;25151;45.566;9.382;2024-03-06T04:46:18;99341.06;;;19.05;61.42
39449;BME280;25151;45.566;9.382;2024-03-06T04:48:44;99339.16;;;19.02;61.65
39449;BME280;25151;45.566;9.382;2024-03-06T04:51:13;99337.50;;;19.05;61.66
39449;BME280;25151;45.566;9.382;2024-03-06T04:53:39;99330.31;;;19.04;61.43
39449;BME280;25151;45.566;9.382;2024-03-06T04:56:06;99339.47;;;19.04;61.44
39449;BME280;25151;45.566;9.382;2024-03-06T04:58:33;99351.00;;;19.06;61.50
39449;BME280;25151;45.566;9.382;2024-03-06T05:00:59;99347.88;;;19.04;61.59
39449;BME280;25151;45.566;9.382;2024-03-06T05:03:26;99353.81;;;19.06;61.44
39449;BME280;25151;45.566;9.382;2024-03-06T05:05:52;99356.25;;;19.04;61.63
39449;BME280;25151;45.566;9.382;2024-03-06T05:08:19;99349.88;;;19.04;61.45
39449;BME280;25151;45.566;9.382;2024-03-06T05:10:47;99355.03;;;19.05;61.63
39449;BME280;25151;45.566;9.382;2024-03-06T05:13:13;99352.34;;;19.02;61.50
39449;BME280;25151;45.566;9.382;2024-03-06T05:15:40;99351.59;;;19.01;61.45
39449;BME280;25151;45.566;9.382;2024-03-06T05:18:07;99357.19;;;19.01;61.61
39449;BME280;25151;45.566;9.382;2024-03-06T05:20:34;99351.59;;;19.01;61.53
39449;BME280;25151;45.566;9.382;2024-03-06T05:23:00;99351.91;;;19.03;61.43
39449;BME280;25151;45.566;9.382;2024-03-06T05:25:34;99358.72;;;19.02;61.59
39449;BME280;25151;45.566;9.382;2024-03-06T05:28:00;99360.28;;;19.03;61.53
39449;BME280;25151;45.566;9.382;2024-03-06T05:30:27;99359.50;;;19.03;61.60
39449;BME280;25151;45.566;9.382;2024-03-06T05:32:54;99363.53;;;19.02;61.46
39449;BME280;25151;45.566;9.382;2024-03-06T05:35:26;99363.06;;;19.03;61.62
39449;BME280;25151;45.566;9.382;2024-03-06T05:37:52;99356.41;;;19.01;61.51
39449;BME280;25151;45.566;9.382;2024-03-06T05:40:18;99360.75;;;19.02;61.40
39449;BME280;25151;45.566;9.382;2024-03-06T05:42:44;99364.44;;;18.99;61.58
39449;BME280;25151;45.566;9.382;2024-03-06T05:45:10;99389.94;;;19.01;61.57
39449;BME280;25151;45.566;9.382;2024-03-06T05:47:37;99406.22;;;19.02;61.51
39449;BME280;25151;45.566;9.382;2024-03-06T05:50:05;99396.72;;;19.00;61.35
39449;BME280;25151;45.566;9.382;2024-03-06T05:52:32;99400.66;;;19.02;61.53
39449;BME280;25151;45.566;9.382;2024-03-06T05:54:58;99386.78;;;18.99;61.61
39449;BME280;25151;45.566;9.382;2024-03-06T05:57:25;99384.44;;;18.97;61.56
39449;BME280;25151;45.566;9.382;2024-03-06T05:59:51;99387.25;;;18.97;61.42
39449;BME280;25151;45.566;9.382;2024-03-06T06:02:19;99381.66;;;18.97;61.61
39449;BME280;25151;45.566;9.382;2024-03-06T06:04:46;99394.84;;;18.97;61.56
39449;BME280;25151;45.566;9.382;2024-03-06T06:07:12;99394.03;;;18.96;61.43
39449;BME280;25151;45.566;9.382;2024-03-06T06:09:38;99405.56;;;18.98;61.61
39449;BME280;25151;45.566;9.382;2024-03-06T06:12:04;99399.63;;;18.96;61.54
39449;BME280;25151;45.566;9.382;2024-03-06T06:14:30;99416.75;;;18.98;61.48
39449;BME280;25151;45.566;9.382;2024-03-06T06:16:56;99421.09;;;18.99;61.44
39449;BME280;25151;45.566;9.382;2024-03-06T06:19:22;99421.09;;;18.99;61.48
39449;BME280;25151;45.566;9.382;2024-03-06T06:21:48;99423.22;;;18.95;61.37
39449;BME280;25151;45.566;9.382;2024-03-06T06:24:14;99432.25;;;18.99;61.71
39449;BME280;25151;45.566;9.382;2024-03-06T06:26:41;99452.41;;;18.94;61.70
39449;BME280;25151;45.566;9.382;2024-03-06T06:29:07;99472.63;;;18.98;61.63
39449;BME280;25151;45.566;9.382;2024-03-06T06:31:35;99473.84;;;18.97;61.66
39449;BME280;25151;45.566;9.382;2024-03-06T06:34:01;99471.06;;;18.97;61.45
39449;BME280;25151;45.566;9.382;2024-03-06T06:36:27;99464.81;;;18.93;61.60
39449;BME280;25151;45.566;9.382;2024-03-06T06:38:53;99460.78;;;18.94;61.42
39449;BME280;25151;45.566;9.382;2024-03-06T06:41:19;99464.69;;;18.97;61.57
39449;BME280;25151;45.566;9.382;2024-03-06T06:43:45;99468.28;;;18.97;61.41
39449;BME280;25151;45.566;9.382;2024-03-06T06:46:39;99465.47;;;18.97;61.46
39449;BME280;25151;45.566;9.382;2024-03-06T06:49:06;99459.66;;;18.91;61.52
39449;BME280;25151;45.566;9.382;2024-03-06T06:55:21;99459.53;;;18.95;61.45
39449;BME280;25151;45.566;9.382;2024-03-06T06:57:49;99449.34;;;18.88;61.32
39449;BME280;25151;45.566;9.382;2024-03-06T07:00:24;99464.44;;;18.91;61.44
39449;BME280;25151;45.566;9.382;2024-03-06T07:02:51;99467.25;;;18.91;61.55
39449;BME280;25151;45.566;9.382;2024-03-06T07:05:17;99469.25;;;18.90;61.36
39449;BME280;25151;45.566;9.382;2024-03-06T07:42:19;99505.22;;;18.88;61.28
39449;BME280;25151;45.566;9.382;2024-03-06T07:44:46;99507.59;;;18.90;61.31
39449;BME280;25151;45.566;9.382;2024-03-06T07:47:13;99509.72;;;18.86;61.42
39449;BME280;25151;45.566;9.382;2024-03-06T07:49:40;99520.34;;;18.91;61.29
39449;BME280;25151;45.566;9.382;2024-03-06T07:52:24;99522.66;;;18.92;61.17
39449;BME280;25151;45.566;9.382;2024-03-06T07:54:50;99525.25;;;18.87;61.48
39449;BME280;25151;45.566;9.382;2024-03-06T07:57:16;99524.38;;;18.90;61.33
39449;BME280;25151;45.566;9.382;2024-03-06T07:59:47;99526.28;;;18.93;61.45
39449;BME280;25151;45.566;9.382;2024-03-06T08:06:16;99537.88;;;19.04;61.38
39449;BME280;25151;45.566;9.382;2024-03-06T08:12:03;99548.53;;;19.09;61.26
39449;BME280;25151;45.566;9.382;2024-03-06T08:15:01;99553.91;;;19.16;61.16
39449;BME280;25151;45.566;9.382;2024-03-06T08:31:10;99555.56;;;19.39;61.02
39449;BME280;25151;45.566;9.382;2024-03-06T08:33:36;99567.00;;;19.45;61.35
39449;BME280;25151;45.566;9.382;2024-03-06T08:38:57;99571.81;;;19.57;61.02
39449;BME280;25151;45.566;9.382;2024-03-06T08:41:23;99581.44;;;19.56;61.26
39449;BME280;25151;45.566;9.382;2024-03-06T08:43:49;99585.13;;;19.66;60.97
39449;BME280;25151;45.566;9.382;2024-03-06T08:52:59;99605.38;;;19.83;60.50
39449;BME280;25151;45.566;9.382;2024-03-06T08:55:28;99595.44;;;19.82;60.31
39449;BME280;25151;45.566;9.382;2024-03-06T08:57:54;99606.03;;;19.87;60.08
39449;BME280;25151;45.566;9.382;2024-03-06T09:07:13;99608.19;;;19.96;59.86
39449;BME280;25151;45.566;9.382;2024-03-06T09:12:56;99615.31;;;20.09;59.64
39449;BME280;25151;45.566;9.382;2024-03-06T09:15:50;99614.19;;;20.07;59.66
39449;BME280;25151;45.566;9.382;2024-03-06T09:18:15;99617.56;;;20.02;59.61
39449;BME280;25151;45.566;9.382;2024-03-06T09:20:44;99612.84;;;19.99;59.67
39449;BME280;25151;45.566;9.382;2024-03-06T09:26:43;99631.75;;;20.07;59.58
39449;BME280;25151;45.566;9.382;2024-03-06T09:29:09;99625.50;;;20.03;59.77
39449;BME280;25151;45.566;9.382;2024-03-06T09:34:32;99629.53;;;20.02;59.44
39449;BME280;25151;45.566;9.382;2024-03-06T09:36:58;99627.63;;;19.99;59.70
39449;BME280;25151;45.566;9.382;2024-03-06T09:39:26;99630.97;;;20.07;59.61
39449;BME280;25151;45.566;9.382;2024-03-06T09:41:54;99625.50;;;20.03;59.61
39449;BME280;25151;45.566;9.382;2024-03-06T09:44:21;99637.81;;;20.06;59.47
39449;BME280;25151;45.566;9.382;2024-03-06T09:46:48;99639.72;;;20.09;59.21
39449;BME280;25151;45.566;9.382;2024-03-06T09:49:16;99637.69;;;20.09;59.23
39449;BME280;25151;45.566;9.382;2024-03-06T09:51:44;99643.31;;;20.09;59.13
39449;BME280;25151;45.566;9.382;2024-03-06T09:54:15;99649.34;;;20.08;59.31
39449;BME280;25151;45.566;9.382;2024-03-06T09:56:42;99643.41;;;20.06;59.39
39449;BME280;25151;45.566;9.382;2024-03-06T09:59:09;99641.41;;;20.06;59.14
39449;BME280;25151;45.566;9.382;2024-03-06T10:01:40;99654.50;;;20.09;59.12
39449;BME280;25151;45.566;9.382;2024-03-06T10:04:38;99642.94;;;20.07;59.67
39449;BME280;25151;45.566;9.382;2024-03-06T10:07:05;99655.75;;;20.08;59.23
39449;BME280;25151;45.566;9.382;2024-03-06T10:09:33;99649.47;;;20.04;59.38
39449;BME280;25151;45.566;9.382;2024-03-06T10:11:59;99657.28;;;20.09;59.28
39449;BME280;25151;45.566;9.382;2024-03-06T10:14:27;99650.38;;;20.01;59.20
39449;BME280;25151;45.566;9.382;2024-03-06T10:16:55;99654.16;;;20.07;59.65
39449;BME280;25151;45.566;9.382;2024-03-06T10:19:22;99668.50;;;20.09;59.30
39449;BME280;25151;45.566;9.382;2024-03-06T10:21:49;99668.16;;;20.07;59.25
39449;BME280;25151;45.566;9.382;2024-03-06T10:24:37;99661.34;;;20.08;59.16
39449;BME280;25151;45.566;9.382;2024-03-06T10:27:04;99657.09;;;20.04;59.64
39449;BME280;25151;45.566;9.382;2024-03-06T10:29:30;99661.44;;;20.05;59.21
39449;BME280;25151;45.566;9.382;2024-03-06T10:31:58;99678.44;;;20.10;59.16
39449;BME280;25151;45.566;9.382;2024-03-06T10:34:25;99663.00;;;20.06;59.51
39449;BME280;25151;45.566;9.382;2024-03-06T10:37:01;99679.69;;;20.09;59.34
39449;BME280;25151;45.566;9.382;2024-03-06T10:39:40;99675.34;;;20.08;59.39
39449;BME280;25151;45.566;9.382;2024-03-06T10:42:07;99672.75;;;20.01;59.68
39449;BME280;25151;45.566;9.382;2024-03-06T10:44:34;99683.72;;;20.08;59.64
39449;BME280;25151;45.566;9.382;2024-03-06T10:47:04;99688.56;;;20.08;59.55
39449;BME280;25151;45.566;9.382;2024-03-06T10:49:31;99686.53;;;20.08;59.50
39449;BME280;25151;45.566;9.382;2024-03-06T10:52:27;99689.31;;;20.08;59.59
39449;BME280;25151;45.566;9.382;2024-03-06T10:54:53;99689.44;;;20.05;59.43
39449;BME280;25151;45.566;9.382;2024-03-06T10:57:21;99698.94;;;20.07;59.66
39449;BME280;25151;45.566;9.382;2024-03-06T11:03:18;99683.94;;;20.01;59.55
39449;BME280;25151;45.566;9.382;2024-03-06T11:05:53;99677.69;;;19.97;59.39
39449;BME280;25151;45.566;9.382;2024-03-06T11:08:33;99684.53;;;19.96;59.55
39449;BME280;25151;45.566;9.382;2024-03-06T11:11:22;99681.38;;;19.94;59.70
39449;BME280;25151;45.566;9.382;2024-03-06T11:13:55;99676.56;;;19.95;59.66
39449;BME280;25151;45.566;9.382;2024-03-06T11:17:05;99686.97;;;19.94;59.35
39449;BME280;25151;45.566;9.382;2024-03-06T11:28:47;99728.72;;;20.01;59.85
39449;BME280;25151;45.566;9.382;2024-03-06T11:31:16;99707.44;;;19.91;59.59
39449;BME280;25151;45.566;9.382;2024-03-06T11:33:47;99720.00;;;19.99;59.56
39449;BME280;25151;45.566;9.382;2024-03-06T11:36:24;99719.22;;;19.99;59.84
39449;BME280;25151;45.566;9.382;2024-03-06T11:39:23;99701.63;;;19.98;59.79
39449;BME280;25151;45.566;9.382;2024-03-06T11:41:50;99705.66;;;19.97;59.89
39449;BME280;25151;45.566;9.382;2024-03-06T11:48:07;99688.09;;;19.97;59.97
39449;BME280;25151;45.566;9.382;2024-03-06T11:50:40;99680.69;;;19.90;60.06
39449;BME280;25151;45.566;9.382;2024-03-06T11:53:21;99680.03;;;19.86;60.09
39449;BME280;25151;45.566;9.382;2024-03-06T11:55:49;99684.16;;;19.94;60.08
39449;BME280;25151;45.566;9.382;2024-03-06T11:58:17;99680.13;;;19.95;59.97
39449;BME280;25151;45.566;9.382;2024-03-06T12:00:44;99682.25;;;19.91;59.95
39449;BME280;25151;45.566;9.382;2024-03-06T12:03:12;99678.69;;;19.90;59.99
39449;BME280;25151;45.566;9.382;2024-03-06T12:05:38;99694.13;;;19.95;60.30
39449;BME280;25151;45.566;9.382;2024-03-06T12:08:07;99685.06;;;19.91;59.95
39449;BME280;25151;45.566;9.382;2024-03-06T12:10:39;99675.09;;;19.90;60.23
39449;BME280;25151;45.566;9.382;2024-03-06T12:13:05;99682.63;;;19.93;60.16
39449;BME280;25151;45.566;9.382;2024-03-06T12:15:32;99670.75;;;19.89;60.15
39449;BME280;25151;45.566;9.382;2024-03-06T12:17:58;99678.25;;;19.92;60.16
39449;BME280;25151;45.566;9.382;2024-03-06T12:20:46;99685.41;;;19.93;60.39
39449;BME280;25151;45.566;9.382;2024-03-06T12:23:22;99677.78;;;19.94;60.26
39449;BME280;25151;45.566;9.382;2024-03-06T12:26:07;99676.13;;;19.96;60.27
39449;BME280;25151;45.566;9.382;2024-03-06T12:28:37;99680.94;;;19.96;60.42
39449;BME280;25151;45.566;9.382;2024-03-06T12:31:11;99681.84;;;19.93;60.53
39449;BME280;25151;45.566;9.382;2024-03-06T12:33:37;99674.66;;;19.92;60.24
39449;BME280;25151;45.566;9.382;2024-03-06T12:36:07;99676.44;;;19.98;60.54
39449;BME280;25151;45.566;9.382;2024-03-06T12:38:39;99661.47;;;19.92;60.39
39449;BME280;25151;45.566;9.382;2024-03-06T12:41:05;99676.91;;;19.97;60.64
39449;BME280;25151;45.566;9.382;2024-03-06T12:43:36;99648.25;;;19.93;60.65
39449;BME280;25151;45.566;9.382;2024-03-06T12:46:03;99651.72;;;19.97;60.50
39449;BME280;25151;45.566;9.382;2024-03-06T12:48:31;99648.13;;;19.96;60.33
39449;BME280;25151;45.566;9.382;2024-03-06T12:50:57;99643.75;;;19.95;60.52
39449;BME280;25151;45.566;9.382;2024-03-06T12:53:30;99649.69;;;19.97;60.25
39449;BME280;25151;45.566;9.382;2024-03-06T12:56:06;99640.94;;;19.95;60.23
39449;BME280;25151;45.566;9.382;2024-03-06T12:58:32;99642.09;;;19.98;60.37
39449;BME280;25151;45.566;9.382;2024-03-06T13:01:00;99651.25;;;19.98;60.14
39449;BME280;25151;45.566;9.382;2024-03-06T13:03:32;99635.81;;;19.94;60.24
39449;BME280;25151;45.566;9.382;2024-03-06T13:06:01;99640.19;;;19.95;60.25
39449;BME280;25151;45.566;9.382;2024-03-06T13:08:30;99635.34;;;19.95;60.49
39449;BME280;25151;45.566;9.382;2024-03-06T13:10:57;99645.66;;;19.98;60.33
39449;BME280;25151;45.566;9.382;2024-03-06T13:13:25;99629.09;;;19.91;60.22
39449;BME280;25151;45.566;9.382;2024-03-06T13:15:56;99632.25;;;19.93;60.31
39449;BME280;25151;45.566;9.382;2024-03-06T13:18:23;99635.47;;;19.92;60.15
39449;BME280;25151;45.566;9.382;2024-03-06T13:20:53;99638.16;;;19.95;59.93
39449;BME280;25151;45.566;9.382;2024-03-06T13:23:25;99627.75;;;19.83;60.22
39449;BME280;25151;45.566;9.382;2024-03-06T13:25:54;99653.84;;;19.93;60.32
39449;BME280;25151;45.566;9.382;2024-03-06T13:28:22;99655.41;;;19.94;60.04
39449;BME280;25151;45.566;9.382;2024-03-06T13:30:54;99642.41;;;19.87;60.10
39449;BME280;25151;45.566;9.382;2024-03-06T13:33:23;99658.66;;;19.92;60.23
39449;BME280;25151;45.566;9.382;2024-03-06T13:35:52;99645.22;;;19.87;60.35
39449;BME280;25151;45.566;9.382;2024-03-06T13:38:21;99644.31;;;19.90;60.09
39449;BME280;25151;45.566;9.382;2024-03-06T13:44:43;99645.88;;;19.91;60.17
39449;BME280;25151;45.566;9.382;2024-03-06T13:47:15;99640.53;;;19.84;60.42
39449;BME280;25151;45.566;9.382;2024-03-06T13:49:44;99651.94;;;19.89;60.24
39449;BME280;25151;45.566;9.382;2024-03-06T13:52:13;99648.78;;;19.87;60.40
39449;BME280;25151;45.566;9.382;2024-03-06T13:54:41;99653.28;;;19.85;60.36
39449;BME280;25151;45.566;9.382;2024-03-06T13:57:08;99655.53;;;19.90;60.36
39449;BME280;25151;45.566;9.382;2024-03-06T13:59:34;99658.00;;;19.88;60.15
39449;BME280;25151;45.566;9.382;2024-03-06T14:02:01;99662.00;;;19.87;60.15
39449;BME280;25151;45.566;9.382;2024-03-06T14:04:29;99649.25;;;19.86;60.15
39449;BME280;25151;45.566;9.382;2024-03-06T14:06:56;99656.41;;;19.87;60.26
39449;BME280;25151;45.566;9.382;2024-03-06T14:09:26;99655.97;;;19.88;60.29
39449;BME280;25151;45.566;9.382;2024-03-06T14:11:57;99644.22;;;19.81;60.31
39449;BME280;25151;45.566;9.382;2024-03-06T14:14:25;99654.75;;;19.89;60.30
39449;BME280;25151;45.566;9.382;2024-03-06T14:16:55;99653.97;;;19.89;60.42
39449;BME280;25151;45.566;9.382;2024-03-06T14:19:23;99641.84;;;19.79;60.30
39449;BME280;25151;45.566;9.382;2024-03-06T14:21:50;99655.19;;;19.88;60.36
39449;BME280;25151;45.566;9.382;2024-03-06T14:24:18;99651.16;;;19.89;60.44
39449;BME280;25151;45.566;9.382;2024-03-06T14:26:47;99647.69;;;19.85;60.29
39449;BME280;25151;45.566;9.382;2024-03-06T14:29:16;99649.72;;;19.84;60.50
39449;BME280;25151;45.566;9.382;2024-03-06T14:31:42;99644.53;;;19.83;60.44
39449;BME280;25151;45.566;9.382;2024-03-06T14:34:09;99642.75;;;19.89;60.33
39449;BME280;25151;45.566;9.382;2024-03-06T14:36:39;99640.75;;;19.89;60.46
39449;BME280;25151;45.566;9.382;2024-03-06T14:39:05;99628.44;;;19.87;60.53
39449;BME280;25151;45.566;9.382;2024-03-06T14:41:33;99632.94;;;19.84;60.44
39449;BME280;25151;45.566;9.382;2024-03-06T14:44:01;99636.03;;;19.86;60.59
39449;BME280;25151;45.566;9.382;2024-03-06T14:46:28;99642.41;;;19.87;60.31
39449;BME280;25151;45.566;9.382;2024-03-06T14:48:56;99636.81;;;19.87;60.37
39449;BME280;25151;45.566;9.382;2024-03-06T14:51:24;99626.53;;;19.84;60.53
39449;BME280;25151;45.566;9.382;2024-03-06T14:53:51;99629.66;;;19.86;60.45
39449;BME280;25151;45.566;9.382;2024-03-06T14:59:45;99626.97;;;19.82;60.54